Etusivu
METAR-TAF:

METAR-TAF

Lentoasemat :

Kangirsuk, Quebec, Kanada

Leveyspiiri: 60-01N, Pituuspiiri: 070-00W, korkeus merenpinnasta: 117 m

Tämänhetkinen sää

Tämä raportti tehtiin 6 tuntia ja 50 minuuttia sitten, kello 01.36 UTC
Tuuli 6 kn lännestä
Lämpötila -29°C
Kosteus 68%
Ilmanpaine 1019 hPa
Näkyvyys: 24.1 km
selkeää

METAR: CYAS 250136Z 27006KT 15SM SKC M29/M33 A3008 RMK LAST STFD OBS/NEXT 251300UTC SLP209

Aika: 03:26 (08:26 UTC)

Sääennuste

Tämä raportti tehtiin 17 tuntia ja 48 minuuttia sitten, kello 14.38 UTC
Ennuste voimassa 24. päivästä klo 15 UTC - 24. päivään klo 22 UTC
Tuuli 10 kn lännestä
Näkyvyys: 10 km
selkeää

TAF: CYAS 241438Z 2415/2422 28010KT P6SM SKC RMK NXT FCST WILL BE ISSUED AT 251445Z

Säähavainnot ja -ennusteet yli 4000 lentoasemalta (METAR- ja TAF-raportit).

Käytössä olevat sääasemat on merkitty karttaan keltaisilla ja punaisilla pisteillä.

Aseta hiiri pisteen päälle nähdäksesi sääaseman nimen.

Klikkaa sitten nähdäksesi säähavainnot ja -ennusteet.

Kartan vaihtaminen: klikkaa mustalla rastilla varustettuja vihreitä pisteitä, niin voit zoomata sisään; viivalla varustettua vihreää pistettä, niin voit zoomata ulos tai vihreitä nuolia, niin pääset viereisille kartoille.


METAR-TAF: